Terminal Aerodrome Forecast
Issued by NWS

Home | Current Version | Previous Version | Text Only | Print | Product List | Glossary On
Versions: 1 2 3 4 5 6 7 8 9 10 11 12 13 14 15 16 17 18 19 20 21 22 23 24 25 26 27 28 29 30 31
524
FTUS44 KMAF 090729 CCB
TAFPEQ
TAF COR
KPEQ 090729Z 0907/1006 09007KT P6SM SCT010 OVC035
      TEMPO 0910/0914 5SM BR BKN010
     FM091600 16008KT P6SM SCT050 BKN250
     FM100000 13007KT P6SM FEW250=

USA.gov is the U.S. government's official web portal to all federal, state and local government web resources and services.